sensor_id;sensor_type;location;lat;lon;timestamp;P1;durP1;ratioP1;P2;durP2;ratioP2
38023;SDS011;23834;48.080;11.682;2023-11-21T00:01:46;1.50;;;1.33;;
38023;SDS011;23834;48.080;11.682;2023-11-21T00:04:11;1.23;;;1.23;;
38023;SDS011;23834;48.080;11.682;2023-11-21T00:06:36;1.67;;;1.57;;
38023;SDS011;23834;48.080;11.682;2023-11-21T00:09:01;1.10;;;1.07;;
38023;SDS011;23834;48.080;11.682;2023-11-21T00:11:27;1.47;;;1.30;;
38023;SDS011;23834;48.080;11.682;2023-11-21T00:13:52;1.40;;;1.30;;
38023;SDS011;23834;48.080;11.682;2023-11-21T00:16:17;1.30;;;1.20;;
38023;SDS011;23834;48.080;11.682;2023-11-21T00:18:43;1.20;;;1.10;;
38023;SDS011;23834;48.080;11.682;2023-11-21T00:21:08;1.43;;;1.33;;
38023;SDS011;23834;48.080;11.682;2023-11-21T00:23:34;1.27;;;1.03;;
38023;SDS011;23834;48.080;11.682;2023-11-21T00:25:59;1.60;;;1.50;;
38023;SDS011;23834;48.080;11.682;2023-11-21T00:28:25;1.03;;;1.03;;
38023;SDS011;23834;48.080;11.682;2023-11-21T00:30:50;1.53;;;1.30;;
38023;SDS011;23834;48.080;11.682;2023-11-21T00:33:15;1.10;;;1.10;;
38023;SDS011;23834;48.080;11.682;2023-11-21T00:35:40;1.33;;;1.23;;
38023;SDS011;23834;48.080;11.682;2023-11-21T00:38:05;1.40;;;1.30;;
38023;SDS011;23834;48.080;11.682;2023-11-21T00:40:30;1.60;;;1.33;;
38023;SDS011;23834;48.080;11.682;2023-11-21T00:42:56;1.30;;;1.20;;
38023;SDS011;23834;48.080;11.682;2023-11-21T00:45:21;1.37;;;1.27;;
38023;SDS011;23834;48.080;11.682;2023-11-21T00:47:46;1.20;;;1.10;;
38023;SDS011;23834;48.080;11.682;2023-11-21T00:50:11;1.20;;;1.10;;
38023;SDS011;23834;48.080;11.682;2023-11-21T00:52:36;1.17;;;1.07;;
38023;SDS011;23834;48.080;11.682;2023-11-21T00:55:02;1.43;;;1.33;;
38023;SDS011;23834;48.080;11.682;2023-11-21T00:57:28;1.10;;;1.00;;
38023;SDS011;23834;48.080;11.682;2023-11-21T00:59:53;1.27;;;1.17;;
38023;SDS011;23834;48.080;11.682;2023-11-21T01:02:18;1.23;;;1.10;;
38023;SDS011;23834;48.080;11.682;2023-11-21T01:04:43;1.27;;;1.17;;
38023;SDS011;23834;48.080;11.682;2023-11-21T01:07:08;1.00;;;1.00;;
38023;SDS011;23834;48.080;11.682;2023-11-21T01:09:34;1.30;;;1.20;;
38023;SDS011;23834;48.080;11.682;2023-11-21T01:11:59;1.20;;;1.00;;
38023;SDS011;23834;48.080;11.682;2023-11-21T01:14:24;1.30;;;1.20;;
38023;SDS011;23834;48.080;11.682;2023-11-21T01:16:52;1.07;;;0.97;;
38023;SDS011;23834;48.080;11.682;2023-11-21T01:19:17;0.87;;;0.80;;
38023;SDS011;23834;48.080;11.682;2023-11-21T01:21:42;1.00;;;0.90;;
38023;SDS011;23834;48.080;11.682;2023-11-21T01:24:07;0.90;;;0.90;;
38023;SDS011;23834;48.080;11.682;2023-11-21T01:26:33;1.53;;;1.00;;
38023;SDS011;23834;48.080;11.682;2023-11-21T01:28:58;1.37;;;1.07;;
38023;SDS011;23834;48.080;11.682;2023-11-21T01:31:24;1.27;;;1.17;;
38023;SDS011;23834;48.080;11.682;2023-11-21T01:33:49;1.07;;;0.90;;
38023;SDS011;23834;48.080;11.682;2023-11-21T01:36:14;1.30;;;1.10;;
38023;SDS011;23834;48.080;11.682;2023-11-21T01:38:39;1.00;;;0.90;;
38023;SDS011;23834;48.080;11.682;2023-11-21T01:41:05;0.83;;;0.83;;
38023;SDS011;23834;48.080;11.682;2023-11-21T01:43:31;1.23;;;0.90;;
38023;SDS011;23834;48.080;11.682;2023-11-21T01:45:57;0.90;;;0.90;;
38023;SDS011;23834;48.080;11.682;2023-11-21T01:48:22;0.73;;;0.73;;
38023;SDS011;23834;48.080;11.682;2023-11-21T01:50:48;1.30;;;1.00;;
38023;SDS011;23834;48.080;11.682;2023-11-21T01:53:13;1.00;;;0.90;;
38023;SDS011;23834;48.080;11.682;2023-11-21T01:55:39;0.90;;;0.90;;
38023;SDS011;23834;48.080;11.682;2023-11-21T01:58:05;0.60;;;0.60;;
38023;SDS011;23834;48.080;11.682;2023-11-21T02:00:30;0.77;;;0.70;;
38023;SDS011;23834;48.080;11.682;2023-11-21T02:02:56;0.90;;;0.90;;
38023;SDS011;23834;48.080;11.682;2023-11-21T02:05:21;1.00;;;1.00;;
38023;SDS011;23834;48.080;11.682;2023-11-21T02:07:47;1.07;;;0.97;;
38023;SDS011;23834;48.080;11.682;2023-11-21T02:10:17;1.17;;;1.07;;
38023;SDS011;23834;48.080;11.682;2023-11-21T02:12:47;1.10;;;0.77;;
38023;SDS011;23834;48.080;11.682;2023-11-21T02:15:13;1.17;;;1.07;;
38023;SDS011;23834;48.080;11.682;2023-11-21T02:17:44;0.90;;;0.90;;
38023;SDS011;23834;48.080;11.682;2023-11-21T02:20:11;1.10;;;0.80;;
38023;SDS011;23834;48.080;11.682;2023-11-21T02:22:41;1.00;;;0.90;;
38023;SDS011;23834;48.080;11.682;2023-11-21T02:25:07;0.80;;;0.80;;
38023;SDS011;23834;48.080;11.682;2023-11-21T02:27:32;1.03;;;0.83;;
38023;SDS011;23834;48.080;11.682;2023-11-21T02:29:58;0.70;;;0.70;;
38023;SDS011;23834;48.080;11.682;2023-11-21T02:32:23;1.50;;;1.10;;
38023;SDS011;23834;48.080;11.682;2023-11-21T02:34:50;1.00;;;0.90;;
38023;SDS011;23834;48.080;11.682;2023-11-21T02:37:16;1.10;;;1.03;;
38023;SDS011;23834;48.080;11.682;2023-11-21T02:39:41;0.83;;;0.80;;
38023;SDS011;23834;48.080;11.682;2023-11-21T02:42:06;0.80;;;0.80;;
38023;SDS011;23834;48.080;11.682;2023-11-21T02:44:31;1.03;;;0.90;;
38023;SDS011;23834;48.080;11.682;2023-11-21T02:46:56;1.30;;;0.90;;
38023;SDS011;23834;48.080;11.682;2023-11-21T02:49:22;0.87;;;0.87;;
38023;SDS011;23834;48.080;11.682;2023-11-21T02:51:48;0.80;;;0.80;;
38023;SDS011;23834;48.080;11.682;2023-11-21T02:54:13;1.10;;;0.83;;
38023;SDS011;23834;48.080;11.682;2023-11-21T02:56:38;1.47;;;1.10;;
38023;SDS011;23834;48.080;11.682;2023-11-21T02:59:04;1.03;;;0.80;;
38023;SDS011;23834;48.080;11.682;2023-11-21T03:01:30;0.83;;;0.83;;
38023;SDS011;23834;48.080;11.682;2023-11-21T03:03:55;0.97;;;0.87;;
38023;SDS011;23834;48.080;11.682;2023-11-21T03:06:20;1.43;;;0.67;;
38023;SDS011;23834;48.080;11.682;2023-11-21T03:08:46;0.83;;;0.80;;
38023;SDS011;23834;48.080;11.682;2023-11-21T03:11:11;0.80;;;0.70;;
38023;SDS011;23834;48.080;11.682;2023-11-21T03:13:38;1.00;;;0.90;;
38023;SDS011;23834;48.080;11.682;2023-11-21T03:16:04;0.70;;;0.70;;
38023;SDS011;23834;48.080;11.682;2023-11-21T03:18:29;0.70;;;0.50;;
38023;SDS011;23834;48.080;11.682;2023-11-21T03:20:54;1.20;;;1.10;;
38023;SDS011;23834;48.080;11.682;2023-11-21T03:23:19;1.00;;;0.70;;
38023;SDS011;23834;48.080;11.682;2023-11-21T03:25:45;0.80;;;0.80;;
38023;SDS011;23834;48.080;11.682;2023-11-21T03:28:10;1.57;;;0.80;;
38023;SDS011;23834;48.080;11.682;2023-11-21T03:30:35;1.10;;;0.70;;
38023;SDS011;23834;48.080;11.682;2023-11-21T03:33:00;0.70;;;0.70;;
38023;SDS011;23834;48.080;11.682;2023-11-21T03:35:25;0.80;;;0.80;;
38023;SDS011;23834;48.080;11.682;2023-11-21T03:37:51;0.70;;;0.70;;
38023;SDS011;23834;48.080;11.682;2023-11-21T03:40:16;0.80;;;0.80;;
38023;SDS011;23834;48.080;11.682;2023-11-21T03:42:41;0.90;;;0.77;;
38023;SDS011;23834;48.080;11.682;2023-11-21T03:45:07;0.90;;;0.90;;
38023;SDS011;23834;48.080;11.682;2023-11-21T03:47:32;0.93;;;0.93;;
38023;SDS011;23834;48.080;11.682;2023-11-21T03:49:57;0.80;;;0.80;;
38023;SDS011;23834;48.080;11.682;2023-11-21T03:52:23;0.87;;;0.73;;
38023;SDS011;23834;48.080;11.682;2023-11-21T03:54:48;1.10;;;1.00;;
38023;SDS011;23834;48.080;11.682;2023-11-21T03:57:15;1.33;;;0.90;;
38023;SDS011;23834;48.080;11.682;2023-11-21T03:59:40;0.97;;;0.90;;
38023;SDS011;23834;48.080;11.682;2023-11-21T04:02:06;1.13;;;0.80;;
38023;SDS011;23834;48.080;11.682;2023-11-21T04:04:32;0.80;;;0.70;;
38023;SDS011;23834;48.080;11.682;2023-11-21T04:06:57;0.87;;;0.87;;
38023;SDS011;23834;48.080;11.682;2023-11-21T04:09:23;0.83;;;0.83;;
38023;SDS011;23834;48.080;11.682;2023-11-21T04:11:50;0.80;;;0.80;;
38023;SDS011;23834;48.080;11.682;2023-11-21T04:14:15;0.77;;;0.77;;
38023;SDS011;23834;48.080;11.682;2023-11-21T04:16:40;0.67;;;0.60;;
38023;SDS011;23834;48.080;11.682;2023-11-21T04:19:06;1.00;;;1.00;;
38023;SDS011;23834;48.080;11.682;2023-11-21T04:21:31;0.70;;;0.70;;
38023;SDS011;23834;48.080;11.682;2023-11-21T04:23:58;1.30;;;1.00;;
38023;SDS011;23834;48.080;11.682;2023-11-21T04:26:23;0.60;;;0.60;;
38023;SDS011;23834;48.080;11.682;2023-11-21T04:28:48;0.90;;;0.70;;
38023;SDS011;23834;48.080;11.682;2023-11-21T04:31:13;0.60;;;0.60;;
38023;SDS011;23834;48.080;11.682;2023-11-21T04:33:39;0.50;;;0.50;;
38023;SDS011;23834;48.080;11.682;2023-11-21T04:36:04;0.60;;;0.60;;
38023;SDS011;23834;48.080;11.682;2023-11-21T04:38:29;0.77;;;0.77;;
38023;SDS011;23834;48.080;11.682;2023-11-21T04:40:54;0.70;;;0.70;;
38023;SDS011;23834;48.080;11.682;2023-11-21T04:43:20;0.70;;;0.70;;
38023;SDS011;23834;48.080;11.682;2023-11-21T04:45:45;0.67;;;0.67;;
38023;SDS011;23834;48.080;11.682;2023-11-21T04:48:10;0.90;;;0.90;;
38023;SDS011;23834;48.080;11.682;2023-11-21T04:50:35;0.60;;;0.57;;
38023;SDS011;23834;48.080;11.682;2023-11-21T04:53:00;1.13;;;0.70;;
38023;SDS011;23834;48.080;11.682;2023-11-21T04:55:25;0.60;;;0.60;;
38023;SDS011;23834;48.080;11.682;2023-11-21T04:57:53;0.80;;;0.60;;
38023;SDS011;23834;48.080;11.682;2023-11-21T05:00:19;0.60;;;0.60;;
38023;SDS011;23834;48.080;11.682;2023-11-21T05:02:46;0.70;;;0.70;;
38023;SDS011;23834;48.080;11.682;2023-11-21T05:05:11;0.77;;;0.77;;
38023;SDS011;23834;48.080;11.682;2023-11-21T05:07:38;0.63;;;0.60;;
38023;SDS011;23834;48.080;11.682;2023-11-21T05:10:06;0.80;;;0.60;;
38023;SDS011;23834;48.080;11.682;2023-11-21T05:12:37;0.70;;;0.70;;
38023;SDS011;23834;48.080;11.682;2023-11-21T05:15:05;1.13;;;0.90;;
38023;SDS011;23834;48.080;11.682;2023-11-21T05:17:37;0.57;;;0.57;;
38023;SDS011;23834;48.080;11.682;2023-11-21T05:20:03;0.60;;;0.60;;
38023;SDS011;23834;48.080;11.682;2023-11-21T05:22:29;0.70;;;0.70;;
38023;SDS011;23834;48.080;11.682;2023-11-21T05:24:55;1.10;;;0.80;;
38023;SDS011;23834;48.080;11.682;2023-11-21T05:27:20;0.80;;;0.60;;
38023;SDS011;23834;48.080;11.682;2023-11-21T05:29:45;0.60;;;0.60;;
38023;SDS011;23834;48.080;11.682;2023-11-21T05:32:10;0.80;;;0.60;;
38023;SDS011;23834;48.080;11.682;2023-11-21T05:34:36;0.50;;;0.50;;
38023;SDS011;23834;48.080;11.682;2023-11-21T05:37:01;0.70;;;0.50;;
38023;SDS011;23834;48.080;11.682;2023-11-21T05:39:26;0.77;;;0.70;;
38023;SDS011;23834;48.080;11.682;2023-11-21T05:41:52;0.93;;;0.80;;
38023;SDS011;23834;48.080;11.682;2023-11-21T05:44:18;0.63;;;0.50;;
38023;SDS011;23834;48.080;11.682;2023-11-21T05:46:43;0.70;;;0.70;;
38023;SDS011;23834;48.080;11.682;2023-11-21T05:49:09;0.70;;;0.60;;
38023;SDS011;23834;48.080;11.682;2023-11-21T05:51:34;0.77;;;0.60;;
38023;SDS011;23834;48.080;11.682;2023-11-21T05:53:59;0.90;;;0.57;;
38023;SDS011;23834;48.080;11.682;2023-11-21T05:56:24;0.97;;;0.50;;
38023;SDS011;23834;48.080;11.682;2023-11-21T05:58:50;0.80;;;0.77;;
38023;SDS011;23834;48.080;11.682;2023-11-21T06:01:16;1.53;;;0.80;;
38023;SDS011;23834;48.080;11.682;2023-11-21T06:03:41;0.50;;;0.50;;
38023;SDS011;23834;48.080;11.682;2023-11-21T06:06:06;0.70;;;0.67;;
38023;SDS011;23834;48.080;11.682;2023-11-21T06:08:32;0.60;;;0.60;;
38023;SDS011;23834;48.080;11.682;2023-11-21T06:10:57;0.60;;;0.60;;
38023;SDS011;23834;48.080;11.682;2023-11-21T06:13:22;0.60;;;0.60;;
38023;SDS011;23834;48.080;11.682;2023-11-21T06:15:49;0.77;;;0.60;;
38023;SDS011;23834;48.080;11.682;2023-11-21T06:18:14;0.60;;;0.50;;
38023;SDS011;23834;48.080;11.682;2023-11-21T06:20:39;0.60;;;0.60;;
38023;SDS011;23834;48.080;11.682;2023-11-21T06:23:05;0.80;;;0.70;;
38023;SDS011;23834;48.080;11.682;2023-11-21T06:25:30;0.60;;;0.53;;
38023;SDS011;23834;48.080;11.682;2023-11-21T06:27:58;0.70;;;0.63;;
38023;SDS011;23834;48.080;11.682;2023-11-21T06:30:23;1.03;;;0.57;;
38023;SDS011;23834;48.080;11.682;2023-11-21T06:32:48;0.60;;;0.53;;
38023;SDS011;23834;48.080;11.682;2023-11-21T06:35:15;0.87;;;0.60;;
38023;SDS011;23834;48.080;11.682;2023-11-21T06:37:40;0.97;;;0.60;;
38023;SDS011;23834;48.080;11.682;2023-11-21T06:40:05;0.60;;;0.50;;
38023;SDS011;23834;48.080;11.682;2023-11-21T06:42:31;0.93;;;0.80;;
38023;SDS011;23834;48.080;11.682;2023-11-21T06:44:57;0.60;;;0.40;;
38023;SDS011;23834;48.080;11.682;2023-11-21T06:47:25;1.30;;;0.70;;
38023;SDS011;23834;48.080;11.682;2023-11-21T06:49:51;0.60;;;0.60;;
38023;SDS011;23834;48.080;11.682;2023-11-21T06:52:16;0.60;;;0.50;;
38023;SDS011;23834;48.080;11.682;2023-11-21T06:54:42;0.93;;;0.60;;
38023;SDS011;23834;48.080;11.682;2023-11-21T06:57:07;0.70;;;0.70;;
38023;SDS011;23834;48.080;11.682;2023-11-21T06:59:32;0.70;;;0.60;;
38023;SDS011;23834;48.080;11.682;2023-11-21T07:01:57;0.60;;;0.60;;
38023;SDS011;23834;48.080;11.682;2023-11-21T07:04:23;0.90;;;0.60;;
38023;SDS011;23834;48.080;11.682;2023-11-21T07:06:49;0.70;;;0.60;;
38023;SDS011;23834;48.080;11.682;2023-11-21T07:09:14;0.60;;;0.60;;
38023;SDS011;23834;48.080;11.682;2023-11-21T07:11:40;1.17;;;0.70;;
38023;SDS011;23834;48.080;11.682;2023-11-21T07:14:05;0.80;;;0.70;;
38023;SDS011;23834;48.080;11.682;2023-11-21T07:16:35;0.90;;;0.60;;
38023;SDS011;23834;48.080;11.682;2023-11-21T07:19:03;1.37;;;0.70;;
38023;SDS011;23834;48.080;11.682;2023-11-21T07:21:31;0.73;;;0.73;;
38023;SDS011;23834;48.080;11.682;2023-11-21T07:23:56;0.60;;;0.57;;
38023;SDS011;23834;48.080;11.682;2023-11-21T07:26:21;0.80;;;0.50;;
38023;SDS011;23834;48.080;11.682;2023-11-21T07:28:47;1.23;;;0.53;;
38023;SDS011;23834;48.080;11.682;2023-11-21T07:31:12;0.80;;;0.80;;
38023;SDS011;23834;48.080;11.682;2023-11-21T07:33:37;0.77;;;0.50;;
38023;SDS011;23834;48.080;11.682;2023-11-21T07:36:03;0.60;;;0.53;;
38023;SDS011;23834;48.080;11.682;2023-11-21T07:38:28;0.60;;;0.60;;
38023;SDS011;23834;48.080;11.682;2023-11-21T07:40:53;1.13;;;0.70;;
38023;SDS011;23834;48.080;11.682;2023-11-21T07:43:18;0.60;;;0.60;;
38023;SDS011;23834;48.080;11.682;2023-11-21T07:45:44;0.70;;;0.70;;
38023;SDS011;23834;48.080;11.682;2023-11-21T07:48:09;0.57;;;0.50;;
38023;SDS011;23834;48.080;11.682;2023-11-21T07:50:34;0.90;;;0.50;;
38023;SDS011;23834;48.080;11.682;2023-11-21T07:53:00;0.50;;;0.50;;
38023;SDS011;23834;48.080;11.682;2023-11-21T07:55:25;0.70;;;0.60;;
38023;SDS011;23834;48.080;11.682;2023-11-21T07:57:50;0.70;;;0.60;;
38023;SDS011;23834;48.080;11.682;2023-11-21T08:00:15;1.10;;;0.90;;
38023;SDS011;23834;48.080;11.682;2023-11-21T08:02:41;0.70;;;0.70;;
38023;SDS011;23834;48.080;11.682;2023-11-21T08:05:11;0.70;;;0.70;;
38023;SDS011;23834;48.080;11.682;2023-11-21T08:07:36;0.60;;;0.50;;
38023;SDS011;23834;48.080;11.682;2023-11-21T08:10:01;0.60;;;0.60;;
38023;SDS011;23834;48.080;11.682;2023-11-21T08:12:26;3.30;;;0.70;;
38023;SDS011;23834;48.080;11.682;2023-11-21T08:14:52;1.33;;;0.50;;
38023;SDS011;23834;48.080;11.682;2023-11-21T08:17:18;0.80;;;0.80;;
38023;SDS011;23834;48.080;11.682;2023-11-21T08:19:45;0.87;;;0.50;;
38023;SDS011;23834;48.080;11.682;2023-11-21T08:22:14;0.77;;;0.77;;
38023;SDS011;23834;48.080;11.682;2023-11-21T08:24:41;0.60;;;0.60;;
38023;SDS011;23834;48.080;11.682;2023-11-21T08:27:06;0.83;;;0.67;;
38023;SDS011;23834;48.080;11.682;2023-11-21T08:29:31;0.60;;;0.50;;
38023;SDS011;23834;48.080;11.682;2023-11-21T08:31:56;0.60;;;0.50;;
38023;SDS011;23834;48.080;11.682;2023-11-21T08:34:22;0.90;;;0.90;;
38023;SDS011;23834;48.080;11.682;2023-11-21T08:36:47;0.67;;;0.53;;
38023;SDS011;23834;48.080;11.682;2023-11-21T08:39:12;0.70;;;0.57;;
38023;SDS011;23834;48.080;11.682;2023-11-21T08:41:38;1.33;;;0.70;;
38023;SDS011;23834;48.080;11.682;2023-11-21T08:44:03;0.70;;;0.60;;
38023;SDS011;23834;48.080;11.682;2023-11-21T08:46:32;0.70;;;0.60;;
38023;SDS011;23834;48.080;11.682;2023-11-21T08:48:57;0.57;;;0.57;;
38023;SDS011;23834;48.080;11.682;2023-11-21T08:51:22;0.80;;;0.80;;
38023;SDS011;23834;48.080;11.682;2023-11-21T08:53:47;0.50;;;0.47;;
38023;SDS011;23834;48.080;11.682;2023-11-21T08:56:13;0.90;;;0.70;;
38023;SDS011;23834;48.080;11.682;2023-11-21T08:58:39;0.60;;;0.50;;
38023;SDS011;23834;48.080;11.682;2023-11-21T09:01:04;0.60;;;0.60;;
38023;SDS011;23834;48.080;11.682;2023-11-21T09:03:29;0.60;;;0.50;;
38023;SDS011;23834;48.080;11.682;2023-11-21T09:05:54;1.00;;;0.70;;
38023;SDS011;23834;48.080;11.682;2023-11-21T09:08:20;0.70;;;0.60;;
38023;SDS011;23834;48.080;11.682;2023-11-21T09:10:47;0.53;;;0.50;;
38023;SDS011;23834;48.080;11.682;2023-11-21T09:13:12;2.73;;;0.57;;
38023;SDS011;23834;48.080;11.682;2023-11-21T09:15:37;0.70;;;0.50;;
38023;SDS011;23834;48.080;11.682;2023-11-21T09:18:03;1.07;;;0.50;;
38023;SDS011;23834;48.080;11.682;2023-11-21T09:20:28;1.17;;;0.60;;
38023;SDS011;23834;48.080;11.682;2023-11-21T09:22:53;0.60;;;0.47;;
38023;SDS011;23834;48.080;11.682;2023-11-21T09:25:19;0.60;;;0.53;;
38023;SDS011;23834;48.080;11.682;2023-11-21T09:27:46;0.63;;;0.60;;
38023;SDS011;23834;48.080;11.682;2023-11-21T09:30:12;0.60;;;0.60;;
38023;SDS011;23834;48.080;11.682;2023-11-21T09:32:39;0.50;;;0.50;;
38023;SDS011;23834;48.080;11.682;2023-11-21T09:35:05;0.87;;;0.50;;
38023;SDS011;23834;48.080;11.682;2023-11-21T09:37:33;0.53;;;0.53;;
38023;SDS011;23834;48.080;11.682;2023-11-21T09:39:58;0.80;;;0.40;;
38023;SDS011;23834;48.080;11.682;2023-11-21T09:42:25;0.50;;;0.40;;
38023;SDS011;23834;48.080;11.682;2023-11-21T09:47:22;0.70;;;0.50;;
38023;SDS011;23834;48.080;11.682;2023-11-21T09:49:48;0.70;;;0.70;;
38023;SDS011;23834;48.080;11.682;2023-11-21T09:52:26;0.67;;;0.50;;
38023;SDS011;23834;48.080;11.682;2023-11-21T09:54:52;0.50;;;0.40;;
38023;SDS011;23834;48.080;11.682;2023-11-21T09:57:19;1.03;;;0.40;;
38023;SDS011;23834;48.080;11.682;2023-11-21T09:59:44;0.60;;;0.60;;
38023;SDS011;23834;48.080;11.682;2023-11-21T10:02:10;0.60;;;0.50;;
38023;SDS011;23834;48.080;11.682;2023-11-21T10:04:38;0.40;;;0.40;;
38023;SDS011;23834;48.080;11.682;2023-11-21T10:07:03;0.50;;;0.47;;
38023;SDS011;23834;48.080;11.682;2023-11-21T10:09:33;0.50;;;0.50;;
38023;SDS011;23834;48.080;11.682;2023-11-21T10:11:59;0.60;;;0.60;;
38023;SDS011;23834;48.080;11.682;2023-11-21T10:14:25;0.50;;;0.50;;
38023;SDS011;23834;48.080;11.682;2023-11-21T10:16:51;0.50;;;0.50;;
38023;SDS011;23834;48.080;11.682;2023-11-21T10:19:18;0.70;;;0.50;;
38023;SDS011;23834;48.080;11.682;2023-11-21T10:21:45;0.93;;;0.67;;
38023;SDS011;23834;48.080;11.682;2023-11-21T10:24:10;0.60;;;0.60;;
38023;SDS011;23834;48.080;11.682;2023-11-21T10:26:37;0.60;;;0.50;;
38023;SDS011;23834;48.080;11.682;2023-11-21T10:29:03;0.60;;;0.40;;
38023;SDS011;23834;48.080;11.682;2023-11-21T10:31:29;1.33;;;0.60;;
38023;SDS011;23834;48.080;11.682;2023-11-21T10:33:55;0.57;;;0.57;;
38023;SDS011;23834;48.080;11.682;2023-11-21T10:36:27;0.60;;;0.50;;
38023;SDS011;23834;48.080;11.682;2023-11-21T10:38:53;0.50;;;0.47;;
38023;SDS011;23834;48.080;11.682;2023-11-21T10:41:18;1.10;;;0.70;;
38023;SDS011;23834;48.080;11.682;2023-11-21T10:43:44;0.50;;;0.40;;
38023;SDS011;23834;48.080;11.682;2023-11-21T10:46:09;0.80;;;0.70;;
38023;SDS011;23834;48.080;11.682;2023-11-21T10:48:34;1.00;;;0.60;;
38023;SDS011;23834;48.080;11.682;2023-11-21T10:51:00;0.70;;;0.50;;
38023;SDS011;23834;48.080;11.682;2023-11-21T10:53:31;0.70;;;0.60;;
38023;SDS011;23834;48.080;11.682;2023-11-21T10:56:04;0.50;;;0.43;;
38023;SDS011;23834;48.080;11.682;2023-11-21T10:58:30;0.40;;;0.40;;
38023;SDS011;23834;48.080;11.682;2023-11-21T11:00:57;0.50;;;0.40;;
38023;SDS011;23834;48.080;11.682;2023-11-21T11:03:22;0.50;;;0.50;;
38023;SDS011;23834;48.080;11.682;2023-11-21T11:05:48;1.53;;;0.50;;
38023;SDS011;23834;48.080;11.682;2023-11-21T11:08:16;0.67;;;0.60;;
38023;SDS011;23834;48.080;11.682;2023-11-21T11:10:43;0.50;;;0.43;;
38023;SDS011;23834;48.080;11.682;2023-11-21T11:13:11;1.00;;;0.50;;
38023;SDS011;23834;48.080;11.682;2023-11-21T11:15:39;0.50;;;0.50;;
38023;SDS011;23834;48.080;11.682;2023-11-21T11:18:04;0.90;;;0.50;;
38023;SDS011;23834;48.080;11.682;2023-11-21T11:20:34;0.77;;;0.63;;
38023;SDS011;23834;48.080;11.682;2023-11-21T11:28:17;0.60;;;0.60;;
38023;SDS011;23834;48.080;11.682;2023-11-21T11:33:14;0.73;;;0.67;;
38023;SDS011;23834;48.080;11.682;2023-11-21T11:35:51;0.60;;;0.40;;
38023;SDS011;23834;48.080;11.682;2023-11-21T11:38:18;1.40;;;0.60;;
38023;SDS011;23834;48.080;11.682;2023-11-21T11:40:46;0.80;;;0.70;;
38023;SDS011;23834;48.080;11.682;2023-11-21T11:43:11;0.90;;;0.43;;
38023;SDS011;23834;48.080;11.682;2023-11-21T11:45:37;0.73;;;0.70;;
38023;SDS011;23834;48.080;11.682;2023-11-21T11:48:06;0.90;;;0.53;;
38023;SDS011;23834;48.080;11.682;2023-11-21T11:50:31;0.60;;;0.60;;
38023;SDS011;23834;48.080;11.682;2023-11-21T11:53:11;0.67;;;0.63;;
38023;SDS011;23834;48.080;11.682;2023-11-21T11:55:36;0.70;;;0.60;;
38023;SDS011;23834;48.080;11.682;2023-11-21T11:58:04;0.50;;;0.50;;
38023;SDS011;23834;48.080;11.682;2023-11-21T12:00:36;0.63;;;0.63;;
38023;SDS011;23834;48.080;11.682;2023-11-21T12:03:08;1.07;;;0.73;;
38023;SDS011;23834;48.080;11.682;2023-11-21T12:05:34;0.63;;;0.60;;
38023;SDS011;23834;48.080;11.682;2023-11-21T12:08:04;1.03;;;0.80;;
38023;SDS011;23834;48.080;11.682;2023-11-21T12:10:30;0.50;;;0.50;;
38023;SDS011;23834;48.080;11.682;2023-11-21T12:13:06;0.90;;;0.60;;
38023;SDS011;23834;48.080;11.682;2023-11-21T12:15:38;0.63;;;0.40;;
38023;SDS011;23834;48.080;11.682;2023-11-21T12:18:03;0.80;;;0.60;;
38023;SDS011;23834;48.080;11.682;2023-11-21T12:20:29;0.60;;;0.60;;
38023;SDS011;23834;48.080;11.682;2023-11-21T12:22:56;0.77;;;0.60;;
38023;SDS011;23834;48.080;11.682;2023-11-21T12:25:25;0.67;;;0.63;;
38023;SDS011;23834;48.080;11.682;2023-11-21T12:27:53;0.50;;;0.50;;
38023;SDS011;23834;48.080;11.682;2023-11-21T12:30:20;0.60;;;0.53;;
38023;SDS011;23834;48.080;11.682;2023-11-21T12:32:50;0.60;;;0.60;;
38023;SDS011;23834;48.080;11.682;2023-11-21T12:35:16;0.60;;;0.47;;
38023;SDS011;23834;48.080;11.682;2023-11-21T12:37:44;0.63;;;0.50;;
38023;SDS011;23834;48.080;11.682;2023-11-21T12:40:10;1.33;;;0.73;;
38023;SDS011;23834;48.080;11.682;2023-11-21T12:42:47;0.60;;;0.60;;
38023;SDS011;23834;48.080;11.682;2023-11-21T12:47:43;0.80;;;0.70;;
38023;SDS011;23834;48.080;11.682;2023-11-21T12:50:08;0.60;;;0.60;;
38023;SDS011;23834;48.080;11.682;2023-11-21T12:52:39;1.33;;;0.60;;
38023;SDS011;23834;48.080;11.682;2023-11-21T12:55:05;1.17;;;0.80;;
38023;SDS011;23834;48.080;11.682;2023-11-21T12:57:32;0.60;;;0.60;;
38023;SDS011;23834;48.080;11.682;2023-11-21T12:59:58;0.70;;;0.67;;
38023;SDS011;23834;48.080;11.682;2023-11-21T13:02:26;0.70;;;0.70;;
38023;SDS011;23834;48.080;11.682;2023-11-21T13:04:51;1.17;;;0.93;;
38023;SDS011;23834;48.080;11.682;2023-11-21T13:07:17;1.00;;;0.63;;
38023;SDS011;23834;48.080;11.682;2023-11-21T13:09:43;0.90;;;0.90;;
38023;SDS011;23834;48.080;11.682;2023-11-21T13:12:09;0.80;;;0.80;;
38023;SDS011;23834;48.080;11.682;2023-11-21T13:14:35;0.80;;;0.80;;
38023;SDS011;23834;48.080;11.682;2023-11-21T13:17:00;1.00;;;0.90;;
38023;SDS011;23834;48.080;11.682;2023-11-21T13:19:25;0.77;;;0.70;;
38023;SDS011;23834;48.080;11.682;2023-11-21T13:21:52;0.70;;;0.70;;
38023;SDS011;23834;48.080;11.682;2023-11-21T13:24:17;0.77;;;0.77;;
38023;SDS011;23834;48.080;11.682;2023-11-21T13:26:43;0.73;;;0.73;;
38023;SDS011;23834;48.080;11.682;2023-11-21T13:29:10;1.13;;;0.70;;
38023;SDS011;23834;48.080;11.682;2023-11-21T13:31:37;1.00;;;1.00;;
38023;SDS011;23834;48.080;11.682;2023-11-21T13:34:03;0.80;;;0.80;;
38023;SDS011;23834;48.080;11.682;2023-11-21T13:36:33;0.80;;;0.80;;
38023;SDS011;23834;48.080;11.682;2023-11-21T13:39:00;1.27;;;0.80;;
38023;SDS011;23834;48.080;11.682;2023-11-21T13:41:32;1.20;;;1.00;;
38023;SDS011;23834;48.080;11.682;2023-11-21T13:43:57;1.07;;;0.97;;
38023;SDS011;23834;48.080;11.682;2023-11-21T13:46:39;0.70;;;0.70;;
38023;SDS011;23834;48.080;11.682;2023-11-21T13:49:04;0.90;;;0.90;;
38023;SDS011;23834;48.080;11.682;2023-11-21T13:51:34;1.07;;;0.90;;
38023;SDS011;23834;48.080;11.682;2023-11-21T13:54:06;1.13;;;1.10;;
38023;SDS011;23834;48.080;11.682;2023-11-21T13:56:34;0.93;;;0.73;;
38023;SDS011;23834;48.080;11.682;2023-11-21T13:59:00;0.80;;;0.80;;
38023;SDS011;23834;48.080;11.682;2023-11-21T14:01:34;0.97;;;0.90;;
38023;SDS011;23834;48.080;11.682;2023-11-21T14:04:17;1.00;;;1.00;;
38023;SDS011;23834;48.080;11.682;2023-11-21T14:06:43;1.20;;;1.10;;
38023;SDS011;23834;48.080;11.682;2023-11-21T14:09:17;1.10;;;1.00;;
38023;SDS011;23834;48.080;11.682;2023-11-21T14:11:56;1.30;;;1.20;;
38023;SDS011;23834;48.080;11.682;2023-11-21T14:14:23;1.03;;;1.00;;
38023;SDS011;23834;48.080;11.682;2023-11-21T14:16:49;1.17;;;1.07;;
38023;SDS011;23834;48.080;11.682;2023-11-21T14:19:15;1.20;;;1.10;;
38023;SDS011;23834;48.080;11.682;2023-11-21T14:21:44;1.00;;;1.00;;
38023;SDS011;23834;48.080;11.682;2023-11-21T14:24:10;0.90;;;0.90;;
38023;SDS011;23834;48.080;11.682;2023-11-21T14:26:37;1.20;;;1.10;;
38023;SDS011;23834;48.080;11.682;2023-11-21T14:29:02;1.10;;;1.07;;
38023;SDS011;23834;48.080;11.682;2023-11-21T14:31:28;1.47;;;1.07;;
38023;SDS011;23834;48.080;11.682;2023-11-21T14:33:55;1.10;;;1.10;;
38023;SDS011;23834;48.080;11.682;2023-11-21T14:36:20;1.27;;;1.17;;
38023;SDS011;23834;48.080;11.682;2023-11-21T14:38:45;0.97;;;0.97;;
38023;SDS011;23834;48.080;11.682;2023-11-21T14:41:10;1.30;;;1.20;;